Time;durP1;ratioP1;P1;durP2;ratioP2;P2;SDS_P1;SDS_P2;PMS_P1;PMS_P2;Temp;Humidity;BMP_temperature;BMP_pressure;BME280_temperature;BME280_humidity;BME280_pressure;Samples;Min_cycle;Max_cycle;Signal;HPM_P1;HPM_P2
2021/06/06 00:00:21;;;;;;;10.23;2.60;;;;;;;20.92;54.81;101340.56;5028584;28;20053;-66
2021/06/06 00:02:50;;;;;;;6.40;2.22;;;;;;;20.88;55.17;101341.50;5028705;28;20125;-66
2021/06/06 00:05:17;;;;;;;4.43;2.30;;;;;;;20.87;55.40;101337.94;5029428;28;20049;-66
2021/06/06 00:07:45;;;;;;;7.22;2.42;;;;;;;20.87;55.78;101345.97;5030386;28;20493;-66
2021/06/06 00:10:13;;;;;;;7.72;2.67;;;;;;;20.87;56.14;101345.13;5032357;28;20069;-66
2021/06/06 00:12:40;;;;;;;5.57;2.72;;;;;;;20.87;56.46;101334.38;5032048;28;20045;-66
2021/06/06 00:15:12;;;;;;;12.65;3.00;;;;;;;20.86;56.62;101330.81;5031270;28;20044;-66
2021/06/06 00:17:39;;;;;;;5.55;2.53;;;;;;;20.85;56.58;101328.16;5029188;28;20041;-66
2021/06/06 00:20:11;;;;;;;6.93;2.63;;;;;;;20.86;56.73;101330.81;5031423;28;20578;-66
2021/06/06 00:22:39;;;;;;;8.50;3.00;;;;;;;20.84;56.64;101326.38;5030929;28;20112;-65
2021/06/06 00:25:12;;;;;;;4.70;2.47;;;;;;;20.84;56.71;101329.06;5032309;28;20130;-66
2021/06/06 00:27:39;;;;;;;6.97;2.95;;;;;;;20.78;56.57;101326.47;5030459;28;20044;-66
2021/06/06 00:30:08;;;;;;;4.70;2.47;;;;;;;20.79;56.33;101325.56;5031688;28;20044;-66
2021/06/06 00:32:35;;;;;;;5.60;2.88;;;;;;;20.77;56.16;101322.91;5032269;28;20058;-66
2021/06/06 00:35:02;;;;;;;8.80;2.20;;;;;;;20.76;56.02;101314.88;5030248;28;20045;-66
2021/06/06 00:37:31;;;;;;;9.57;2.90;;;;;;;20.73;56.63;101318.53;5031369;28;20120;-66
2021/06/06 00:39:58;;;;;;;5.95;2.90;;;;;;;20.74;56.38;101311.34;5031737;28;20085;-66
2021/06/06 00:42:28;;;;;;;9.32;3.05;;;;;;;20.71;56.44;101314.97;5032016;28;20053;-66
2021/06/06 00:44:55;;;;;;;9.10;3.00;;;;;;;20.67;56.77;101306.09;5016436;28;20117;-66
2021/06/06 00:47:23;;;;;;;5.68;2.45;;;;;;;20.68;56.79;101315.00;5025939;28;20136;-66
2021/06/06 00:49:51;;;;;;;8.43;3.08;;;;;;;20.68;56.90;101307.84;5031143;28;20153;-66
2021/06/06 00:52:19;;;;;;;6.05;2.78;;;;;;;20.67;57.03;101313.25;5030609;28;20132;-66
2021/06/06 00:54:49;;;;;;;5.93;2.50;;;;;;;20.62;57.18;101307.94;5020038;28;20046;-66
2021/06/06 00:57:21;;;;;;;10.27;3.08;;;;;;;20.65;56.88;101307.91;5013318;28;20068;-66
2021/06/06 00:59:55;;;;;;;4.28;2.42;;;;;;;20.61;56.98;101299.94;5028380;28;20053;-65
2021/06/06 01:02:22;;;;;;;5.05;2.30;;;;;;;20.60;56.54;101300.84;5027227;28;20465;-66
2021/06/06 01:04:49;;;;;;;12.07;2.75;;;;;;;20.58;56.07;101284.78;5026255;28;20107;-66
2021/06/06 01:07:16;;;;;;;4.18;2.20;;;;;;;20.57;55.67;101290.16;5030478;28;20132;-66
2021/06/06 01:09:43;;;;;;;3.97;2.50;;;;;;;20.53;55.78;101289.34;5027395;28;20128;-66
2021/06/06 01:12:20;;;;;;;9.75;2.72;;;;;;;20.53;55.26;101297.38;5014521;28;20044;-66
2021/06/06 01:14:52;;;;;;;5.32;2.40;;;;;;;20.54;54.62;101285.75;5018979;28;20034;-66
2021/06/06 01:17:23;;;;;;;5.00;2.20;;;;;;;20.52;54.57;101292.03;5030071;28;20042;-65
2021/06/06 01:19:57;;;;;;;6.47;2.20;;;;;;;20.52;54.17;101295.63;5030731;28;20378;-65
2021/06/06 01:22:39;;;;;;;5.50;2.15;;;;;;;20.49;53.59;101298.34;5030556;28;20045;-65
2021/06/06 01:25:12;;;;;;;4.68;2.15;;;;;;;20.45;53.69;101285.00;5030075;28;20108;-65
2021/06/06 01:27:45;;;;;;;7.18;2.50;;;;;;;20.45;53.35;101302.00;5030378;28;20045;-67
2021/06/06 01:30:17;;;;;;;5.45;2.40;;;;;;;20.41;53.42;101294.91;5030467;28;20037;-66
2021/06/06 01:32:48;;;;;;;7.13;2.35;;;;;;;20.42;53.35;101303.81;5026860;28;20133;-66
2021/06/06 01:35:21;;;;;;;4.82;2.25;;;;;;;20.45;53.12;101299.31;5030885;28;20042;-66
2021/06/06 01:37:53;;;;;;;4.72;1.90;;;;;;;20.45;53.10;101301.09;5030382;28;20029;-66
2021/06/06 01:40:27;;;;;;;7.15;1.98;;;;;;;20.47;52.77;101286.78;5029267;28;20478;-66
2021/06/06 01:42:59;;;;;;;5.70;2.22;;;;;;;20.44;53.07;101293.97;5030547;28;20144;-66
2021/06/06 01:45:32;;;;;;;6.75;2.30;;;;;;;20.40;52.88;101281.53;5029623;28;20053;-66
2021/06/06 01:48:03;;;;;;;6.97;2.60;;;;;;;20.39;53.07;101294.03;5030379;28;20045;-66
2021/06/06 01:50:33;;;;;;;6.65;2.15;;;;;;;20.38;53.12;101289.59;5028925;28;20082;-66
2021/06/06 01:53:04;;;;;;;5.85;2.40;;;;;;;20.40;52.97;101290.47;5011395;28;20694;-66
2021/06/06 01:55:35;;;;;;;5.85;2.50;;;;;;;20.43;53.29;101282.34;5030458;28;20124;-66
2021/06/06 01:58:05;;;;;;;6.88;2.55;;;;;;;20.42;53.32;101280.56;5030124;28;20079;-66
2021/06/06 02:00:36;;;;;;;7.05;2.80;;;;;;;20.41;53.73;101278.81;5029809;28;20144;-66
2021/06/06 02:03:04;;;;;;;8.23;2.65;;;;;;;20.42;54.27;101290.41;5030341;28;20045;-66
2021/06/06 02:05:31;;;;;;;4.82;2.63;;;;;;;20.43;54.68;101276.09;5030158;28;20464;-66
2021/06/06 02:08:01;;;;;;;9.60;3.28;;;;;;;20.43;55.90;101297.56;5029964;28;20120;-66
2021/06/06 02:10:32;;;;;;;13.10;3.30;;;;;;;20.43;56.15;101303.81;5028221;28;20055;-65
2021/06/06 02:13:08;;;;;;;5.95;2.72;;;;;;;20.40;56.93;101287.78;5030066;28;20443;-66
2021/06/06 02:15:38;;;;;;;8.05;2.75;;;;;;;20.37;57.37;101294.97;5022583;28;20038;-66
2021/06/06 02:18:07;;;;;;;7.35;3.20;;;;;;;20.35;57.84;101288.78;5030087;28;20469;-66
2021/06/06 02:20:38;;;;;;;6.43;2.50;;;;;;;20.35;58.23;101303.03;5001950;28;20033;-66
2021/06/06 02:23:06;;;;;;;6.78;3.38;;;;;;;20.36;58.72;101295.88;4994151;28;20125;-66
2021/06/06 02:25:33;;;;;;;12.95;3.95;;;;;;;20.34;58.87;101289.66;5008365;28;20042;-66
2021/06/06 02:28:10;;;;;;;6.70;3.42;;;;;;;20.29;59.55;101293.25;5009689;28;20088;-66
2021/06/06 02:30:42;;;;;;;7.50;3.33;;;;;;;20.27;60.07;101288.84;5027477;28;20121;-66
2021/06/06 02:33:19;;;;;;;7.93;3.30;;;;;;;20.27;60.26;101286.16;5029831;28;20040;-66
2021/06/06 02:35:54;;;;;;;6.53;3.22;;;;;;;20.26;60.36;101290.66;5029574;28;20029;-66
2021/06/06 02:38:27;;;;;;;5.38;3.20;;;;;;;20.24;60.65;101288.88;5029519;28;20442;-66
2021/06/06 02:41:01;;;;;;;5.75;2.83;;;;;;;20.19;60.83;101290.75;5014014;28;20038;-66
2021/06/06 02:43:36;;;;;;;7.18;3.30;;;;;;;20.15;61.52;101279.19;5027753;28;20045;-66
2021/06/06 02:46:05;;;;;;;6.13;3.15;;;;;;;20.18;61.41;101288.97;5029141;28;20052;-66
2021/06/06 02:48:38;;;;;;;6.45;3.42;;;;;;;20.17;61.60;101276.47;5028968;28;20493;-66
2021/06/06 02:51:09;;;;;;;6.15;3.22;;;;;;;20.19;61.99;101280.03;5027427;28;20124;-65
2021/06/06 02:53:41;;;;;;;13.95;3.88;;;;;;;20.17;62.04;101287.19;5029377;28;20568;-66
2021/06/06 02:56:12;;;;;;;6.07;2.92;;;;;;;20.17;61.88;101280.03;5029159;28;20064;-65
2021/06/06 02:58:47;;;;;;;7.43;3.38;;;;;;;20.17;61.97;101287.19;5028981;28;20048;-66
2021/06/06 03:01:19;;;;;;;8.23;3.50;;;;;;;20.17;61.77;101287.19;5028352;28;20140;-66
2021/06/06 03:03:48;;;;;;;9.25;3.95;;;;;;;20.11;61.84;101287.31;5029305;28;20048;-66
2021/06/06 03:06:19;;;;;;;4.97;2.88;;;;;;;20.10;62.05;101290.88;5028986;28;20095;-66
2021/06/06 03:08:47;;;;;;;5.00;3.00;;;;;;;20.14;61.82;101301.56;5029276;28;20069;-66
2021/06/06 03:11:15;;;;;;;6.65;3.38;;;;;;;20.20;61.96;101295.22;5027709;28;20121;-65
2021/06/06 03:13:47;;;;;;;6.00;3.25;;;;;;;20.26;61.84;101295.13;5028868;28;20074;-66
2021/06/06 03:16:16;;;;;;;9.57;3.42;;;;;;;20.26;61.93;101287.06;5028569;28;20116;-66
2021/06/06 03:18:46;;;;;;;7.10;3.30;;;;;;;20.30;62.31;101294.16;5028826;28;20025;-65
2021/06/06 03:21:18;;;;;;;7.97;3.30;;;;;;;20.39;62.64;101294.03;5029130;28;20045;-66
2021/06/06 03:23:49;;;;;;;7.45;3.28;;;;;;;20.48;62.78;101296.56;5028816;28;20042;-66
2021/06/06 03:26:17;;;;;;;11.77;4.18;;;;;;;20.59;62.68;101307.13;5022981;28;20044;-65
2021/06/06 03:28:46;;;;;;;7.63;3.17;;;;;;;20.69;62.43;101292.63;5025125;28;20121;-66
2021/06/06 03:31:19;;;;;;;5.68;2.90;;;;;;;20.80;62.19;101304.09;5028946;28;20080;-67
2021/06/06 03:33:52;;;;;;;8.57;3.60;;;;;;;20.89;62.04;101311.06;5028976;28;20037;-66
2021/06/06 03:36:22;;;;;;;6.50;2.78;;;;;;;20.94;62.10;101299.31;5028880;28;20038;-66
2021/06/06 03:38:50;;;;;;;6.32;3.35;;;;;;;20.98;61.50;101295.69;5028449;28;20391;-66
2021/06/06 03:41:17;;;;;;;7.50;2.92;;;;;;;21.01;61.31;101306.34;5030407;28;20061;-66
2021/06/06 03:43:46;;;;;;;6.53;2.78;;;;;;;21.15;61.07;101299.84;5032938;28;20387;-66
2021/06/06 03:46:13;;;;;;;6.90;2.78;;;;;;;21.30;60.75;101297.78;5032573;28;20052;-66
2021/06/06 03:48:40;;;;;;;4.95;3.08;;;;;;;21.47;60.13;101292.94;5033126;28;20065;-66
2021/06/06 03:51:09;;;;;;;6.07;3.35;;;;;;;21.64;60.03;101294.41;5031735;28;20038;-65
2021/06/06 03:53:36;;;;;;;6.68;2.67;;;;;;;21.76;59.36;101286.97;5017205;28;20033;-66
2021/06/06 03:56:05;;;;;;;6.15;2.70;;;;;;;21.93;58.86;101283.88;5014121;28;20097;-66
2021/06/06 03:58:32;;;;;;;4.40;2.50;;;;;;;22.08;58.65;101288.94;4997400;28;20125;-66
2021/06/06 04:01:00;;;;;;;6.70;2.33;;;;;;;22.26;58.39;101296.56;5008910;28;20041;-66
2021/06/06 04:03:27;;;;;;;4.40;2.33;;;;;;;22.38;57.64;101281.97;5012928;28;20133;-65
2021/06/06 04:05:54;;;;;;;6.03;2.70;;;;;;;22.53;57.49;101286.06;5012874;28;20093;-66
2021/06/06 04:08:22;;;;;;;2.90;2.22;;;;;;;22.66;56.95;101287.50;5012193;28;20501;-66
2021/06/06 04:10:50;;;;;;;6.90;2.10;;;;;;;22.80;56.43;101274.59;5011774;28;20076;-65
2021/06/06 04:13:18;;;;;;;5.18;2.45;;;;;;;22.97;55.95;101283.09;5030114;28;20037;-65
2021/06/06 04:15:45;;;;;;;6.70;2.72;;;;;;;23.12;55.91;101273.72;5031181;28;20048;-66
2021/06/06 04:18:17;;;;;;;6.13;2.42;;;;;;;23.27;55.35;101275.13;5031859;28;20042;-65
2021/06/06 04:20:46;;;;;;;5.10;2.35;;;;;;;23.39;54.93;101282.84;5030473;28;20044;-66
2021/06/06 04:23:15;;;;;;;3.75;2.00;;;;;;;23.53;54.33;101299.53;5031601;28;20045;-66
2021/06/06 04:25:42;;;;;;;4.32;2.00;;;;;;;23.64;53.26;101281.22;5031562;28;20051;-66
2021/06/06 04:28:10;;;;;;;8.07;2.35;;;;;;;23.77;52.45;101290.72;5031784;28;20045;-66
2021/06/06 04:30:37;;;;;;;2.63;1.88;;;;;;;23.91;52.14;101284.88;5032172;28;20037;-66
2021/06/06 04:33:08;;;;;;;3.97;2.08;;;;;;;24.08;51.85;101289.78;5013897;28;20129;-66
2021/06/06 04:35:38;;;;;;;7.50;2.05;;;;;;;24.25;51.27;101284.75;5027052;28;20095;-66
2021/06/06 04:38:05;;;;;;;4.07;2.20;;;;;;;24.41;50.57;101279.75;5031446;28;20046;-66
2021/06/06 04:40:32;;;;;;;8.15;2.35;;;;;;;24.59;50.53;101276.41;5031929;28;20041;-66
2021/06/06 04:43:00;;;;;;;4.85;2.28;;;;;;;24.75;50.17;101280.34;5008746;28;20125;-67
2021/06/06 04:45:27;;;;;;;4.63;1.88;;;;;;;25.06;49.67;101282.88;5005241;28;20053;-66
2021/06/06 04:47:54;;;;;;;3.70;1.90;;;;;;;25.32;48.69;101282.81;5011993;28;20042;-66
2021/06/06 04:50:22;;;;;;;3.47;1.98;;;;;;;25.48;47.99;101280.41;5011222;28;20117;-67
2021/06/06 04:52:51;;;;;;;4.68;1.88;;;;;;;25.70;47.11;101267.88;5010450;28;20125;-67
2021/06/06 04:55:22;;;;;;;5.97;2.28;;;;;;;25.93;46.74;101274.22;5018343;28;20083;-66
2021/06/06 04:57:49;;;;;;;4.30;2.22;;;;;;;26.21;45.76;101280.25;5014733;28;20131;-66
2021/06/06 05:00:25;;;;;;;3.55;1.58;;;;;;;26.50;45.61;101279.09;5009570;28;20044;-66
2021/06/06 05:02:52;;;;;;;3.78;1.58;;;;;;;26.84;45.22;101283.97;5016853;28;20462;-67
2021/06/06 05:05:20;;;;;;;7.40;1.92;;;;;;;27.02;43.50;101285.91;5029294;28;20038;-66
2021/06/06 05:07:53;;;;;;;3.63;2.10;;;;;;;27.26;42.85;101282.06;5044108;28;20034;-66
2021/06/06 05:10:21;;;;;;;7.82;2.20;;;;;;;27.42;42.34;101284.97;5028522;28;20087;-66
2021/06/06 05:12:48;;;;;;;3.72;1.60;;;;;;;27.61;41.73;101285.03;5030411;28;20438;-66
2021/06/06 05:15:16;;;;;;;5.65;1.90;;;;;;;27.88;40.91;101288.28;5010810;28;20094;-67
2021/06/06 05:17:43;;;;;;;3.75;1.60;;;;;;;28.11;40.65;101294.34;5030194;28;20493;-66
2021/06/06 05:20:13;;;;;;;6.20;1.58;;;;;;;28.33;39.76;101293.34;5013568;28;20498;-66
2021/06/06 05:22:40;;;;;;;7.97;2.03;;;;;;;28.49;39.21;101297.91;5037475;28;20037;-66
2021/06/06 05:25:10;;;;;;;6.93;1.60;;;;;;;28.48;38.37;101289.88;5039453;28;20065;-67
2021/06/06 05:27:37;;;;;;;2.65;1.60;;;;;;;28.45;38.18;101307.19;5031090;28;20184;-67
2021/06/06 05:30:06;;;;;;;6.63;1.70;;;;;;;28.70;38.20;101295.06;5028210;28;20577;-66
2021/06/06 05:32:34;;;;;;;2.85;1.50;;;;;;;28.80;37.52;101304.56;5025087;28;20397;-67
2021/06/06 05:35:02;;;;;;;4.18;1.65;;;;;;;28.96;37.18;101310.97;5004102;28;20046;-66
2021/06/06 05:37:30;;;;;;;2.95;1.58;;;;;;;29.22;36.68;101307.75;5025984;28;20049;-66
2021/06/06 05:39:57;;;;;;;3.97;1.40;;;;;;;29.61;36.33;101312.91;5010623;28;20169;-66
2021/06/06 05:42:25;;;;;;;3.80;1.50;;;;;;;29.81;36.11;101317.25;5028827;28;20037;-66
2021/06/06 05:44:52;;;;;;;6.93;1.88;;;;;;;30.01;36.20;101317.06;5030299;28;20044;-66
2021/06/06 05:47:20;;;;;;;5.28;2.00;;;;;;;30.24;35.91;101314.88;5029105;28;20042;-66
2021/06/06 05:49:47;;;;;;;4.57;2.08;;;;;;;30.44;35.12;101306.44;5021237;28;20102;-67
2021/06/06 05:52:14;;;;;;;3.33;1.40;;;;;;;30.47;34.19;101317.13;5016350;28;20181;-66
2021/06/06 05:54:41;;;;;;;6.03;1.70;;;;;;;30.59;34.14;101329.22;5030551;28;20060;-66
2021/06/06 05:57:09;;;;;;;4.30;1.50;;;;;;;30.48;34.04;101311.59;5029842;28;20087;-66
2021/06/06 05:59:38;;;;;;;5.07;1.77;;;;;;;30.31;34.21;101313.56;5034787;28;20124;-66
2021/06/06 06:02:06;;;;;;;3.67;1.80;;;;;;;30.33;33.76;101309.75;5024729;28;20030;-66
2021/06/06 06:04:33;;;;;;;3.25;1.70;;;;;;;30.29;33.93;101304.59;5018888;28;20487;-67
2021/06/06 06:07:00;;;;;;;8.75;2.45;;;;;;;30.41;33.36;101307.47;5027078;28;20056;-67
2021/06/06 06:09:27;;;;;;;7.15;1.30;;;;;;;30.58;32.77;101306.53;5024116;28;20762;-66
2021/06/06 06:11:54;;;;;;;4.53;2.00;;;;;;;30.86;32.86;101308.47;5025591;28;20099;-67
2021/06/06 06:14:21;;;;;;;4.53;1.55;;;;;;;31.08;33.21;101299.91;5021431;28;20144;-66
2021/06/06 06:16:49;;;;;;;3.97;1.55;;;;;;;31.24;33.42;101306.19;5035039;28;20728;-67
2021/06/06 06:19:17;;;;;;;6.25;1.45;;;;;;;31.41;33.25;101307.84;5046347;28;20067;-66
2021/06/06 06:21:44;;;;;;;4.25;1.65;;;;;;;31.30;33.15;101304.94;5026853;28;20148;-66
2021/06/06 06:24:12;;;;;;;3.80;1.45;;;;;;;31.17;33.19;101305.69;5029643;28;20044;-67
2021/06/06 06:26:40;;;;;;;5.07;1.65;;;;;;;31.28;33.15;101302.28;5029458;28;20048;-67
2021/06/06 06:29:08;;;;;;;4.25;1.60;;;;;;;31.36;32.70;101299.97;5030109;28;20120;-67
2021/06/06 06:31:35;;;;;;;4.35;1.88;;;;;;;31.45;32.59;101295.75;5023144;28;20489;-66
2021/06/06 06:34:05;;;;;;;3.78;1.50;;;;;;;31.38;31.56;101303.44;5028018;28;20112;-67
2021/06/06 06:36:32;;;;;;;6.88;1.60;;;;;;;31.28;31.29;101307.75;5027240;28;20453;-66
2021/06/06 06:38:59;;;;;;;3.13;1.33;;;;;;;31.50;31.41;101307.28;5027518;28;20065;-65
2021/06/06 06:41:29;;;;;;;4.57;1.70;;;;;;;31.23;31.22;101301.69;5028314;28;20048;-65
2021/06/06 06:43:57;;;;;;;3.63;1.95;;;;;;;31.20;31.43;101310.06;5028400;28;20038;-64
2021/06/06 06:46:24;;;;;;;3.85;1.63;;;;;;;31.36;31.44;101313.63;5024092;28;20045;-64
2021/06/06 06:48:52;;;;;;;3.67;1.98;;;;;;;31.34;30.82;101322.84;5005652;28;20104;-64
2021/06/06 06:51:22;;;;;;;3.70;1.60;;;;;;;31.55;30.77;101321.53;5000379;28;20142;-64
2021/06/06 06:53:53;;;;;;;7.97;4.20;;;;;;;31.72;31.33;101318.63;5006067;28;20121;-64
2021/06/06 06:56:21;;;;;;;4.53;1.40;;;;;;;31.82;31.10;101303.41;5011321;28;20037;-64
2021/06/06 06:58:49;;;;;;;2.38;1.33;;;;;;;31.75;30.93;101309.38;5024605;28;20043;-64
2021/06/06 07:01:16;;;;;;;2.97;1.50;;;;;;;31.69;30.39;101316.09;5004817;28;20047;-65
2021/06/06 07:03:44;;;;;;;3.05;1.40;;;;;;;31.54;30.95;101317.91;5018561;28;20041;-64
2021/06/06 07:06:13;;;;;;;2.85;1.17;;;;;;;31.62;30.62;101318.34;5028059;28;20136;-64
2021/06/06 07:08:42;;;;;;;2.67;1.42;;;;;;;31.70;30.63;101322.44;5028206;28;20077;-64
2021/06/06 07:11:12;;;;;;;8.65;2.10;;;;;;;31.76;30.35;101330.25;5028261;28;20470;-65
2021/06/06 07:13:39;;;;;;;3.95;1.63;;;;;;;31.66;30.50;101333.56;5023741;28;20117;-65
2021/06/06 07:16:09;;;;;;;4.32;1.50;;;;;;;31.66;30.26;101330.81;5014581;28;20037;-65
2021/06/06 07:18:37;;;;;;;3.72;1.27;;;;;;;31.65;29.70;101329.06;5029202;28;20630;-65
2021/06/06 07:21:06;;;;;;;3.75;2.38;;;;;;;31.86;29.79;101325.94;5013151;28;20052;-65
2021/06/06 07:23:34;;;;;;;5.78;2.20;;;;;;;31.92;29.81;101320.97;5028219;28;20045;-65
2021/06/06 07:26:10;;;;;;;2.75;1.40;;;;;;;31.95;29.79;101320.78;5027806;28;20133;-65
2021/06/06 07:28:37;;;;;;;2.83;1.50;;;;;;;31.86;30.20;101335.00;5028829;28;20120;-65
2021/06/06 07:31:06;;;;;;;4.60;1.35;;;;;;;31.82;30.08;101335.31;5027031;28;20526;-64
2021/06/06 07:33:37;;;;;;;3.70;1.40;;;;;;;31.97;29.88;101328.84;5028044;28;20382;-65
2021/06/06 07:36:06;;;;;;;4.07;1.40;;;;;;;32.04;29.94;101341.13;5023489;28;20133;-65
2021/06/06 07:38:33;;;;;;;3.00;1.40;;;;;;;32.15;29.63;101333.19;5008886;28;20136;-65
2021/06/06 07:41:00;;;;;;;3.92;1.52;;;;;;;32.22;29.95;101331.78;5027503;28;20053;-65
2021/06/06 07:43:29;;;;;;;6.43;1.52;;;;;;;32.38;29.32;101331.63;5028378;28;20494;-65
2021/06/06 07:45:56;;;;;;;4.88;1.50;;;;;;;32.40;29.22;101330.56;5028495;28;20064;-65
2021/06/06 07:48:23;;;;;;;3.80;1.42;;;;;;;32.36;29.10;101326.25;5029052;28;20121;-65
2021/06/06 07:50:52;;;;;;;4.35;1.42;;;;;;;32.31;28.23;101327.56;5028614;28;20048;-65
2021/06/06 07:53:20;;;;;;;5.00;1.45;;;;;;;32.28;28.31;101330.50;5027453;28;20033;-65
2021/06/06 07:55:47;;;;;;;6.88;2.28;;;;;;;32.36;28.41;101334.47;5026968;28;20493;-65
2021/06/06 07:58:19;;;;;;;4.35;1.90;;;;;;;32.35;28.35;101331.84;5028578;28;20094;-65
2021/06/06 08:00:48;;;;;;;4.60;1.52;;;;;;;32.42;28.18;101327.75;5028507;28;20064;-65
2021/06/06 08:03:15;;;;;;;3.47;1.50;;;;;;;32.47;28.50;101324.69;5028807;28;20033;-65
2021/06/06 08:05:44;;;;;;;2.63;1.50;;;;;;;32.54;27.61;101331.50;5027093;28;20034;-65
2021/06/06 08:08:15;;;;;;;3.15;1.33;;;;;;;32.48;27.28;101335.53;5028349;28;20057;-65
2021/06/06 08:10:43;;;;;;;1.80;1.58;;;;;;;32.48;27.31;101331.91;5028427;28;20040;-65
2021/06/06 08:13:11;;;;;;;5.22;1.40;;;;;;;32.55;27.29;101328.69;5028294;28;20464;-65
2021/06/06 08:15:37;;;;;;;2.95;1.38;;;;;;;32.45;27.74;101339.34;5028292;28;20052;-65
2021/06/06 08:18:08;;;;;;;3.50;1.30;;;;;;;32.45;27.57;101314.72;5028678;28;20071;-65
2021/06/06 08:20:39;;;;;;;5.75;1.33;;;;;;;32.38;27.76;101335.25;5028320;28;20046;-65
2021/06/06 08:23:08;;;;;;;5.13;1.50;;;;;;;32.44;28.27;101340.31;5028979;28;20088;-65
2021/06/06 08:25:36;;;;;;;3.10;1.33;;;;;;;32.74;27.83;101350.22;5027387;28;20033;-65
2021/06/06 08:28:03;;;;;;;2.55;1.33;;;;;;;32.84;27.85;101338.53;5029549;28;20484;-66
2021/06/06 08:30:36;;;;;;;4.20;1.50;;;;;;;32.91;28.15;101341.72;5029236;28;20669;-65
2021/06/06 08:33:03;;;;;;;3.38;1.33;;;;;;;33.02;27.99;101333.66;5029708;28;20125;-66
2021/06/06 08:35:31;;;;;;;4.15;1.67;;;;;;;33.05;27.65;101325.25;5030585;28;20048;-65
2021/06/06 08:37:58;;;;;;;2.90;1.25;;;;;;;32.86;27.19;101337.56;5031157;28;20049;-65
2021/06/06 08:40:32;;;;;;;4.22;1.35;;;;;;;32.79;27.05;101328.91;5029150;28;20115;-65
2021/06/06 08:43:02;;;;;;;3.53;1.55;;;;;;;32.70;27.29;101340.44;5030054;28;20039;-66
2021/06/06 08:45:36;;;;;;;6.50;1.50;;;;;;;32.72;26.83;101336.63;5029596;28;20046;-65
2021/06/06 08:48:07;;;;;;;3.10;1.50;;;;;;;32.72;27.40;101339.38;5031220;28;20068;-66
2021/06/06 08:50:39;;;;;;;5.82;1.45;;;;;;;32.69;27.41;101350.50;5031576;28;20064;-65
2021/06/06 08:53:16;;;;;;;2.90;1.23;;;;;;;32.64;27.28;101346.31;5011809;28;20042;-65
2021/06/06 08:56:06;;;;;;;4.97;1.85;;;;;;;32.64;27.53;101340.84;5026004;28;20045;-65
2021/06/06 08:58:43;;;;;;;3.22;1.45;;;;;;;32.51;27.53;101350.84;5030174;28;20069;-65
2021/06/06 09:01:16;;;;;;;3.60;1.38;;;;;;;32.60;27.33;101351.13;5031481;28;20045;-65
2021/06/06 09:03:44;;;;;;;8.53;4.83;;;;;;;32.71;27.47;101354.03;5031724;28;20037;-65
2021/06/06 09:06:18;;;;;;;4.35;3.03;;;;;;;32.92;27.13;101339.88;5025812;28;20045;-65
2021/06/06 09:08:44;;;;;;;;;;;;;;;32.78;27.56;101344.44;4997220;28;20038;-65
2021/06/06 09:11:15;;;;;;;3.80;1.73;;;;;;;32.86;26.85;101356.72;5008092;28;19935;-65
2021/06/06 09:13:42;;;;;;;6.50;1.73;;;;;;;32.96;26.95;101342.28;5009254;28;20053;-64
2021/06/06 09:16:19;;;;;;;4.35;2.17;;;;;;;33.00;26.34;101352.06;5024208;28;20064;-65
2021/06/06 09:18:47;;;;;;;6.95;2.35;;;;;;;33.03;26.94;101357.31;5030725;28;20037;-65
2021/06/06 09:21:19;;;;;;;4.30;1.60;;;;;;;33.11;26.71;101349.44;5030267;28;20628;-65
2021/06/06 09:23:48;;;;;;;7.80;1.73;;;;;;;33.08;26.89;101355.13;5027258;28;20120;-65
2021/06/06 09:26:22;;;;;;;3.50;1.60;;;;;;;33.20;26.25;101354.34;5040739;28;20397;-65
2021/06/06 09:29:04;;;;;;;5.70;1.48;;;;;;;33.42;26.70;101356.41;5015999;28;20040;-65
2021/06/06 09:31:31;;;;;;;3.58;1.60;;;;;;;33.42;26.83;101350.06;5029000;28;20164;-65
2021/06/06 09:34:04;;;;;;;4.78;1.67;;;;;;;33.38;26.26;101346.69;5023274;28;20129;-65
2021/06/06 09:36:35;;;;;;;3.67;1.30;;;;;;;33.35;26.29;101355.09;5028680;28;20037;-65
2021/06/06 09:39:20;;;;;;;3.83;1.25;;;;;;;33.26;25.72;101343.94;5006953;28;20482;-65
2021/06/06 09:41:50;;;;;;;2.65;1.23;;;;;;;33.27;26.59;101342.94;5025849;28;20060;-65
2021/06/06 09:44:27;;;;;;;6.00;1.60;;;;;;;33.26;26.30;101342.06;5029377;28;20505;-65
2021/06/06 09:47:00;;;;;;;3.20;1.45;;;;;;;33.28;25.93;101340.09;5021360;28;20076;-65
2021/06/06 09:49:33;;;;;;;2.95;1.30;;;;;;;33.32;25.04;101338.91;5024364;28;20048;-65
2021/06/06 09:52:14;;;;;;;2.33;1.23;;;;;;;33.14;25.32;101345.63;5025054;28;20092;-65
2021/06/06 09:54:45;;;;;;;4.93;1.75;;;;;;;32.80;25.58;101341.59;5028546;28;20087;-65
2021/06/06 09:57:22;;;;;;;3.40;1.25;;;;;;;32.75;25.29;101341.03;5029571;28;20555;-65
2021/06/06 09:59:50;;;;;;;4.53;1.63;;;;;;;32.58;25.85;101333.03;5021949;28;20480;-65
2021/06/06 10:02:30;;;;;;;1.77;1.40;;;;;;;32.48;25.07;101324.59;5015166;28;20124;-64
2021/06/06 10:05:04;;;;;;;3.25;1.40;;;;;;;32.44;25.75;101323.91;5021422;28;20517;-64
2021/06/06 10:07:37;;;;;;;3.35;1.13;;;;;;;32.41;25.92;101313.19;5029233;28;20125;-65
2021/06/06 10:10:15;;;;;;;4.20;1.63;;;;;;;32.37;26.06;101308.88;5023349;28;20065;-65
2021/06/06 10:12:45;;;;;;;4.38;1.60;;;;;;;32.33;25.95;101318.28;5027281;28;20091;-64
2021/06/06 10:15:17;;;;;;;4.10;1.83;;;;;;;32.35;25.68;101313.59;5028171;28;20079;-65
2021/06/06 10:17:50;;;;;;;2.63;1.67;;;;;;;32.16;26.10;101310.34;5024152;28;20056;-65
2021/06/06 10:20:23;;;;;;;6.87;1.83;;;;;;;32.09;26.27;101313.53;5025376;28;20073;-65
2021/06/06 10:22:54;;;;;;;2.05;1.30;;;;;;;31.96;26.68;101310.72;5024617;28;20535;-65
2021/06/06 10:25:26;;;;;;;3.85;1.50;;;;;;;31.80;26.71;101305.38;5022010;28;20332;-65
2021/06/06 10:27:57;;;;;;;1.80;1.08;;;;;;;31.67;26.58;101305.28;5023696;28;20124;-65
2021/06/06 10:30:29;;;;;;;2.38;1.35;;;;;;;31.62;26.47;101304.69;5023327;28;20041;-65
2021/06/06 10:33:02;;;;;;;6.80;1.40;;;;;;;31.66;26.11;101292.59;5022243;28;20559;-65
2021/06/06 10:35:30;;;;;;;2.00;1.40;;;;;;;31.55;25.18;101286.03;5020109;28;20908;-65
2021/06/06 10:38:00;;;;;;;2.42;1.67;;;;;;;31.53;24.50;101288.84;5026150;28;20050;-65
2021/06/06 10:40:33;;;;;;;3.10;1.30;;;;;;;31.57;24.44;101290.41;5026954;28;20042;-66
2021/06/06 10:43:05;;;;;;;2.38;1.30;;;;;;;31.74;24.47;101296.69;5025995;28;20443;-66
2021/06/06 10:45:38;;;;;;;5.85;1.20;;;;;;;31.70;23.78;101289.69;5025320;28;20120;-65
2021/06/06 10:48:12;;;;;;;5.40;1.70;;;;;;;31.87;23.84;101298.53;5025217;28;20050;-65
2021/06/06 10:50:43;;;;;;;3.63;1.50;;;;;;;32.12;23.78;101292.34;5022373;28;20045;-66
2021/06/06 10:53:18;;;;;;;3.85;1.55;;;;;;;32.31;23.98;101290.16;5023290;28;20037;-66
2021/06/06 10:56:00;;;;;;;3.78;1.83;;;;;;;32.41;24.60;101280.38;5020581;28;20049;-66
2021/06/06 10:58:37;;;;;;;4.63;1.50;;;;;;;32.32;24.52;101289.19;5024708;28;20396;-66
2021/06/06 11:01:09;;;;;;;1.95;1.40;;;;;;;32.31;24.53;101284.69;5021087;28;20318;-65
2021/06/06 11:03:37;;;;;;;6.38;1.95;;;;;;;32.39;24.65;101271.41;5011073;28;20770;-65
2021/06/06 11:06:25;;;;;;;5.60;1.73;;;;;;;32.57;24.44;101268.38;4999647;28;20494;-65
2021/06/06 11:08:56;;;;;;;3.70;1.70;;;;;;;32.74;23.98;101288.19;5012703;28;20133;-65
2021/06/06 11:11:28;;;;;;;3.20;1.58;;;;;;;32.89;24.09;101267.06;5026137;28;20051;-65
2021/06/06 11:13:58;;;;;;;2.95;1.55;;;;;;;33.05;24.04;101270.50;5027710;28;20509;-66
2021/06/06 11:16:36;;;;;;;2.60;1.38;;;;;;;33.27;23.92;101266.28;5027258;28;20113;-66
2021/06/06 11:19:08;;;;;;;5.00;1.33;;;;;;;33.62;23.76;101268.22;5015277;28;20034;-65
2021/06/06 11:21:44;;;;;;;5.75;2.25;;;;;;;33.74;23.09;101265.63;5014796;28;20540;-65
2021/06/06 11:24:46;;;;;;;3.80;1.35;;;;;;;33.96;22.63;101266.66;5021126;28;20040;-65
2021/06/06 11:27:22;;;;;;;24.55;12.80;;;;;;;34.04;22.45;101265.22;5024493;28;20080;-67
2021/06/06 11:29:53;;;;;;;17.58;12.85;;;;;;;33.98;22.67;101280.25;5026077;28;20041;-66
2021/06/06 11:32:24;;;;;;;4.50;1.77;;;;;;;33.97;22.19;101273.91;5022527;28;20048;-66
2021/06/06 11:35:18;;;;;;;2.67;1.65;;;;;;;33.98;22.33;101274.78;5021335;28;20060;-66
2021/06/06 11:37:47;;;;;;;3.70;1.35;;;;;;;34.18;21.55;101278.78;5016368;28;20069;-65